Rosedale, Kansas
Current Conditions -  °F | °C
As of 4:54 PM on Saturday 25 Oct 2014 (Local Time) from KMKC Reporting Station
Clear Clear  
Wind Chill: 81°   Ceiling: Unl
Heat Index: 81°   Visibility: 10mi
Dew Point: 56°   Wind: 5mph
Humidity: 42%   Direction: 80°E
Pressure: 30"   Gusts: NA
Location:  39.0609°N, 94.6263°W
Report Text: KMKC 252154Z 08004KT 10SM CLR 27/13 A3000 RMK AO2 SLP154 T02720133
Loading
Personal Weather Stations






























Interactive Weather Map
Tropical Storm Tracking
New forecast layout! Learn more

10-Day Weather Forecast

Advertisements
Track Severe Weather on mobile